Cognac-Châteaubernard (BA 709) Air Base

Airport
ICAO code: 
LFBG
IATA Code: 
CNG
Summary
ICAO Region: 
EUR
Territory: 
Location: 
, Poitou-Charentes
Serving: 
Cognac
Elevation: 
102 ft
Coordinates: 
Aerial View: 
45° 39' 29.999" N, 0° 19' 3" W
Metar
Observation
LFBG 210500Z AUTO 01008KT CAVOK 02/M00 Q1034
Station
Cognac
Date/Time
2022-01-21 05:00:00
Wind direction
10°
Wind speed
08 kts
Lowest cloud amount
clouds and visibility OK
Temperature
2°C
Dew point
-0°C
Humidity
86%
QNH
1034 hPa
Weather condition
n/a

Runways

Designator Length Width Surface Rops
9/27 1875 60 MAC No/No
5/23 2423 45 PEM No/No
Airport map: 
Aerial View: 

SKYbrary Partners:

Safety knowledge contributed by: